• Join FlightAware (Why Join?)
  • Login
  • US Flag 
05:13AM EDT


 

Airport Tracker/Info


-or-


 

Live Flight TrackerFlight Track Log ✈ MAS802 ✈ 26-Jun-2013 ✈ WMKK / KUL - RPLL / MNL

Flight Track Log - Related Links

Times and Time Zones

All times are in EDT time to prevent confusion due to time zone crossing. See the MAS802 flight status page for this flight to view local times or setup timezone preferences in your user account.

Time Position Orientation Groundspeed Altitude Reporting Facility
EDT Latitude Longitude Course Direction KTS MPH feet Rate Location/Type
02:30AM 0.0160 -0.0100 329° Northwest 185 213 1,600  Level FlightAware
02:31AM 0.0160 -0.0090 90° East 185 213 3,000 2,040 Climbing FlightAware
02:32AM 2.9160 101.6810 87° East 274 315 5,200 3,000 Climbing FlightAware
02:32AM 2.9230 101.7100 76° East 280 322 6,200 2,400 Climbing FlightAware
02:32AM 2.9250 101.7310 85° East 285 328 6,800 1,740 Climbing FlightAware
02:33AM 2.9280 101.7610 84° East 305 351 7,400 1,620 Climbing FlightAware
02:33AM 2.9300 101.7810 84° East 314 361 7,800 2,700 Climbing FlightAware
02:34AM 2.9350 101.8350 85° East 322 371 9,400 2,520 Climbing FlightAware
02:34AM 2.9380 101.8930 87° East 335 386 10,900 2,340 Climbing FlightAware
02:35AM 2.9440 101.9540 84° East 347 399 12,600 2,340 Climbing FlightAware
02:36AM 2.9560 102.0110 78° East 339 390 14,100 2,880 Climbing FlightAware
02:36AM 3.0030 102.0920 60° Northeast 349 402 16,700 2,400 Climbing FlightAware
02:37AM 3.0370 102.1480 59° Northeast 383 441 17,500 900 Climbing FlightAware
02:38AM 3.0720 102.2040 58° Northeast 385 443 18,000 360 Climbing FlightAware
02:38AM 3.1240 102.2890 59° Northeast 383 441 18,100 120 Climbing FlightAware
02:39AM 3.1610 102.3470 57° Northeast 384 442 18,200 1,500 Climbing FlightAware
02:40AM 3.1820 102.4440 78° East 395 455 20,500 1,380 Climbing FlightAware
02:41AM 3.1970 102.5140 78° East 395 455 20,500  Level FlightAware
02:41AM 3.2080 102.5690 79° East 395 455 20,500  Level FlightAware
02:42AM 3.2240 102.6400 77° East 395 455 20,500  Level FlightAware
02:43AM 3.2360 102.6970 78° East 395 455 20,500 2,040 Level FlightAware
02:46AM 3.3965 102.9439 57° Northeast  Level Estimated
02:46AM 3.3290 103.1610 57° Northeast 445 512 29,000  Level FlightAware
02:47AM 3.4567 103.0366 57° Northeast  Level Estimated
02:47AM 3.3490 103.2530 78° East 444 511 29,000  Level FlightAware
02:48AM 3.3620 103.3180 79° East 444 511 29,000  Level FlightAware
02:49AM 3.3840 103.4210 78° East 444 511 29,000  Level FlightAware
02:49AM 3.3960 103.4790 78° East 444 511 29,000  Level FlightAware
02:50AM 3.4140 103.5610 78° East 444 511 29,000  Level FlightAware
02:52AM 3.4040 103.8320 92° East 450 518 29,000  Level FlightAware
02:53AM 3.4090 103.9280 87° East 450 518 29,000  Level FlightAware
02:53AM 3.4120 103.9950 87° East 450 518 29,000  Level FlightAware
02:54AM 3.4180 104.1120 87° East 451 519 29,000  Level FlightAware
02:55AM 3.4210 104.1760 87° East 451 519 29,000  Level FlightAware
02:56AM 3.4260 104.2610 87° East 451 519 29,000  Level FlightAware
02:56AM 3.4290 104.3250 87° East 451 519 29,000  Level FlightAware
02:57AM 3.4340 104.4070 87° East 451 519 29,000 1,980 Level FlightAware
02:58AM 3.4590 104.5560 80° East 452 520 32,000 1,800 Climbing FlightAware
02:59AM 3.4780 104.6590 80° East 452 520 32,000  Level FlightAware
02:59AM 3.4960 104.7590 80° East 451 519 32,000  Level FlightAware
03:02AM 3.6401 104.9615 54° Northeast  Level Estimated
03:02AM 3.5580 104.9930 54° Northeast 449 517 32,000  Level FlightAware
03:02AM 3.5720 105.1380 84° East 449 517 32,000  Level FlightAware
03:03AM 3.5770 105.1960 85° East 448 516 32,000  Level FlightAware
03:04AM 3.5770 105.2790 90° East 442 509 32,000  Level FlightAware
03:04AM 3.5770 105.3470 90° East 442 509 32,000  Level FlightAware
03:05AM 3.5770 105.4300 90° East 442 509 32,000  Level FlightAware
03:06AM 3.5770 105.4930 90° East 442 509 32,000  Level FlightAware
03:06AM 3.5800 105.6150 89° East 433 498 32,000  Level FlightAware
03:07AM 3.5810 105.7100 89° East 444 511 32,000  Level FlightAware
03:08AM 3.5840 105.7930 88° East 444 511 32,000  Level FlightAware
03:08AM 3.5900 105.8720 86° East 445 512 32,000  Level FlightAware
03:09AM 3.5940 105.9340 86° East 445 512 32,000  Level FlightAware
03:10AM 3.6000 106.0180 86° East 445 512 32,000  Level FlightAware
03:11AM 3.6040 106.0830 86° East 445 512 32,000  Level FlightAware
03:11AM 3.6100 106.1620 86° East 445 512 32,000  Level FlightAware
03:12AM 3.6140 106.2250 86° East 445 512 32,000  Level FlightAware
03:13AM 3.6200 106.3050 86° East 445 512 32,000  Level FlightAware
03:13AM 3.6260 106.3860 86° East 445 512 32,000  Level FlightAware
03:14AM 3.6300 106.4490 86° East 445 512 32,000  Level FlightAware
03:15AM 3.6360 106.5330 86° East 445 512 32,000  Level FlightAware
03:15AM 3.6400 106.5960 86° East 445 512 32,000  Level FlightAware
03:16AM 3.7060 106.8100 73° East 433 498 32,000  Level FlightAware
03:17AM 3.7260 106.8910 76° East 434 499 32,000  Level FlightAware
03:18AM 3.7650 106.9840 67° East 434 499 32,000  Level FlightAware
03:19AM 3.8060 107.0800 67° East 432 497 32,000  Level FlightAware
03:19AM 3.8440 107.1670 66° East 432 497 32,000  Level FlightAware
03:20AM 3.8690 107.2230 66° East 432 497 32,000  Level FlightAware
03:21AM 3.9020 107.2980 66° East 432 497 32,000  Level FlightAware
03:21AM 3.9270 107.3550 66° East 432 497 32,000  Level FlightAware
03:22AM 3.9600 107.4300 66° East 432 497 32,000  Level FlightAware
03:23AM 3.9850 107.4860 66° East 432 497 32,000  Level FlightAware
03:24AM 4.0180 107.5600 66° East 432 497 32,000  Level FlightAware
03:24AM 4.0430 107.6160 66° East 432 497 32,000  Level FlightAware
03:25AM 4.0770 107.6930 66° East 432 497 32,000  Level FlightAware
03:26AM 4.1020 107.7490 66° East 432 497 32,000  Level FlightAware
03:26AM 4.1360 107.8250 66° East 432 497 32,000  Level FlightAware
03:27AM 4.1600 107.8790 66° East 432 497 32,000  Level FlightAware
03:28AM 4.1940 107.9560 66° East 432 497 32,000  Level FlightAware
03:28AM 4.2190 108.0120 66° East 432 497 32,000  Level FlightAware
03:31AM 4.3621 108.1853 50° Northeast  Level Estimated
03:32AM 4.4324 108.2705 50° Northeast  Level Estimated
03:33AM 4.5027 108.3558 50° Northeast  Level Estimated
03:34AM 4.5730 108.4410 50° Northeast  Level Estimated
03:35AM 4.6434 108.5263 50° Northeast  Level Estimated
03:36AM 4.7137 108.6116 50° Northeast  Level Estimated
03:37AM 4.7839 108.6969 50° Northeast  Level Estimated
03:38AM 4.8542 108.7823 50° Northeast  Level Estimated
03:39AM 4.9245 108.8676 50° Northeast  Level Estimated
03:40AM 4.9948 108.9530 50° Northeast  Level Estimated
03:41AM 5.0650 109.0384 50° Northeast  Level Estimated
03:42AM 5.1352 109.1238 50° Northeast  Level Estimated
03:43AM 5.2055 109.2092 50° Northeast  Level Estimated
03:44AM 5.2757 109.2947 50° Northeast  Level Estimated
03:45AM 5.3459 109.3802 50° Northeast  Level Estimated
03:46AM 5.4161 109.4657 50° Northeast  Level Estimated
03:47AM 5.4862 109.5512 50° Northeast  Level Estimated
03:48AM 5.5564 109.6367 51° Northeast  Level Estimated
03:49AM 5.6266 109.7222 51° Northeast  Level Estimated
03:50AM 5.6967 109.8078 51° Northeast  Level Estimated
03:51AM 5.7668 109.8934 51° Northeast  Level Estimated
03:52AM 5.8369 109.9790 51° Northeast  Level Estimated
03:53AM 5.9070 110.0646 51° Northeast  Level Estimated
03:54AM 5.9771 110.1503 51° Northeast  Level Estimated
03:55AM 6.0472 110.2360 51° Northeast  Level Estimated
03:56AM 6.1173 110.3217 51° Northeast  Level Estimated
03:57AM 6.1873 110.4074 51° Northeast  Level Estimated
03:58AM 6.2573 110.4931 51° Northeast  Level Estimated
03:59AM 6.3274 110.5789 51° Northeast  Level Estimated
04:00AM 6.3974 110.6647 51° Northeast  Level Estimated
04:01AM 6.4674 110.7505 51° Northeast  Level Estimated
04:02AM 6.5373 110.8363 51° Northeast  Level Estimated
04:03AM 6.6073 110.9222 51° Northeast  Level Estimated
04:04AM 6.6772 111.0081 51° Northeast  Level Estimated
04:05AM 6.7472 111.0940 51° Northeast  Level Estimated
04:06AM 6.8171 111.1799 51° Northeast  Level Estimated
04:07AM 6.8870 111.2659 51° Northeast  Level Estimated
04:08AM 6.9569 111.3519 51° Northeast  Level Estimated
04:09AM 7.0268 111.4379 51° Northeast  Level Estimated
04:10AM 7.0966 111.5239 51° Northeast  Level Estimated
04:11AM 7.1665 111.6100 51° Northeast  Level Estimated
04:12AM 7.2363 111.6961 51° Northeast  Level Estimated
04:13AM 7.3061 111.7822 51° Northeast  Level Estimated
04:14AM 7.3759 111.8683 51° Northeast  Level Estimated
04:15AM 7.4457 111.9545 51° Northeast  Level Estimated
04:16AM 7.5154 112.0407 51° Northeast  Level Estimated
04:17AM 7.5852 112.1270 51° Northeast  Level Estimated
04:18AM 7.6549 112.2132 51° Northeast  Level Estimated
04:19AM 7.7246 112.2995 51° Northeast  Level Estimated
04:20AM 7.7943 112.3858 51° Northeast  Level Estimated
04:21AM 7.8640 112.4721 51° Northeast  Level Estimated
04:22AM 7.9336 112.5585 51° Northeast  Level Estimated
04:23AM 8.0033 112.6449 51° Northeast  Level Estimated
04:24AM 8.0729 112.7313 51° Northeast  Level Estimated
04:25AM 8.1425 112.8178 51° Northeast  Level Estimated
04:26AM 8.2121 112.9043 51° Northeast  Level Estimated
04:27AM 8.2816 112.9908 51° Northeast  Level Estimated
04:28AM 8.3512 113.0773 51° Northeast  Level Estimated
04:29AM 8.4207 113.1639 51° Northeast  Level Estimated
04:30AM 8.4902 113.2505 51° Northeast  Level Estimated
04:31AM 8.5597 113.3372 51° Northeast  Level Estimated
04:32AM 8.6292 113.4239 51° Northeast  Level Estimated
04:33AM 8.6986 113.5106 51° Northeast  Level Estimated
04:34AM 8.7681 113.5973 51° Northeast  Level Estimated
04:35AM 8.8375 113.6841 51° Northeast  Level Estimated
04:36AM 8.9069 113.7709 51° Northeast  Level Estimated
04:37AM 8.9762 113.8577 51° Northeast  Level Estimated
04:38AM 9.0456 113.9446 51° Northeast  Level Estimated
04:39AM 9.1149 114.0315 51° Northeast  Level Estimated
04:40AM 9.1842 114.1184 51° Northeast  Level Estimated
04:41AM 9.2535 114.2054 51° Northeast  Level Estimated
04:42AM 9.3228 114.2924 51° Northeast  Level Estimated
04:43AM 9.3920 114.3794 51° Northeast  Level Estimated
04:44AM 9.4613 114.4665 51° Northeast  Level Estimated
04:45AM 9.5305 114.5536 51° Northeast  Level Estimated
04:46AM 9.5996 114.6407 51° Northeast  Level Estimated
04:47AM 9.6688 114.7279 51° Northeast  Level Estimated
04:48AM 9.7379 114.8151 51° Northeast  Level Estimated
04:49AM 9.8071 114.9024 51° Northeast  Level Estimated
04:50AM 9.8762 114.9896 51° Northeast  Level Estimated
04:51AM 9.9452 115.0770 51° Northeast  Level Estimated
04:52AM 10.0143 115.1643 51° Northeast  Level Estimated
04:53AM 10.0833 115.2517 51° Northeast  Level Estimated
04:54AM 10.1523 115.3392 51° Northeast  Level Estimated
04:55AM 10.2213 115.4266 51° Northeast  Level Estimated
04:56AM 10.2902 115.5142 51° Northeast  Level Estimated
04:57AM 10.3592 115.6017 51° Northeast  Level Estimated
04:58AM 10.4281 115.6893 51° Northeast  Level Estimated
04:59AM 10.4970 115.7769 51° Northeast  Level Estimated
05:00AM 10.5658 115.8646 51° Northeast  Level Estimated
05:01AM 10.6347 115.9523 51° Northeast  Level Estimated
05:02AM 10.7035 116.0400 51° Northeast  Level Estimated
05:03AM 10.7723 116.1278 51° Northeast  Level Estimated
05:04AM 10.8410 116.2156 51° Northeast  Level Estimated
05:05AM 10.9098 116.3035 51° Northeast  Level Estimated
05:06AM 10.9785 116.3914 51° Northeast  Level Estimated
05:07AM 11.0472 116.4793 51° Northeast  Level Estimated
05:08AM 11.1158 116.5673 51° Northeast  Level Estimated
05:09AM 11.1845 116.6554 52° Northeast  Level Estimated
05:09AM 12.5040 118.3120 52° Northeast 460 529 32,000  Level FlightAware
05:10AM 11.2531 116.7434 52° Northeast  Level Estimated
05:10AM 12.5530 118.3770 52° Northeast 459 528 32,000  Level FlightAware
05:11AM 12.6300 118.4800 53° Northeast 458 527 32,000  Level FlightAware
05:12AM 12.6780 118.5440 52° Northeast 460 529 32,000  Level FlightAware
05:13AM 12.7330 118.6150 52° Northeast 460 529 32,000  Level FlightAware
05:14AM 12.8240 118.7380 53° Northeast 465 535 32,000  Level FlightAware
05:15AM 12.9010 118.8420 53° Northeast 466 536 32,000  Level FlightAware
05:15AM 12.9710 118.9350 52° Northeast 466 536 32,000  Level FlightAware
05:16AM 13.0270 119.0100 53° Northeast 465 535 32,000  Level FlightAware
05:17AM 13.1000 119.1070 52° Northeast 461 531 32,000  Level FlightAware
05:18AM 13.1470 119.1690 52° Northeast 460 529 32,000  Level FlightAware
05:18AM 13.2100 119.2520 52° Northeast 460 529 32,000  Level FlightAware
05:19AM 13.2630 119.3220 52° Northeast 459 528 32,000  Level FlightAware
05:20AM 13.3140 119.3900 52° Northeast 459 528 32,000  Level FlightAware
05:21AM 13.3720 119.4670 52° Northeast 461 531 32,000  Level FlightAware
05:21AM 13.4210 119.5310 52° Northeast 461 531 32,000  Level FlightAware
05:22AM 13.4820 119.6120 52° Northeast 462 532 32,000 -180 Level FlightAware
05:23AM 13.5370 119.6850 52° Northeast 448 516 31,800 -900 Descending FlightAware
05:23AM 13.5870 119.7510 52° Northeast 425 489 30,800 -1,920 Descending FlightAware
05:24AM 13.6350 119.8160 53° Northeast 421 484 29,200 -2,280 Descending FlightAware
05:25AM 13.6850 119.8820 52° Northeast 411 473 27,700 -2,100 Descending FlightAware
05:25AM 13.7350 119.9490 52° Northeast 394 453 26,300 -1,980 Descending FlightAware
05:26AM 13.7780 120.0060 52° Northeast 385 443 25,000 -2,100 Descending FlightAware
05:27AM 13.8250 120.0690 52° Northeast 377 434 23,400 -2,040 Descending FlightAware
05:28AM 13.8700 120.1290 52° Northeast 362 417 22,100 -1,980 Descending FlightAware
05:28AM 13.9060 120.1800 54° Northeast 354 407 20,800 -2,160 Descending FlightAware
05:29AM 13.9520 120.2440 53° Northeast 351 404 19,100 -2,040 Descending FlightAware
05:29AM 13.9840 120.2890 54° Northeast 341 392 18,100 -1,140 Descending FlightAware
05:31AM 14.0690 120.4070 53° Northeast 304 350 16,700 -900 Descending FlightAware
05:32AM 14.1000 120.4500 53° Northeast 285 328 16,100 -1,080 Descending FlightAware
05:32AM 14.1350 120.4980 53° Northeast 274 315 15,200 -1,440 Descending FlightAware
05:33AM 14.1650 120.5410 54° Northeast 278 320 14,100 -1,500 Descending FlightAware
05:34AM 14.1970 120.5850 53° Northeast 274 315 13,200 -1,260 Descending FlightAware
05:34AM 14.2270 120.6280 54° Northeast 268 308 12,400 -1,320 Descending FlightAware
05:35AM 14.2570 120.6700 54° Northeast 266 306 11,400 -1,320 Descending FlightAware
05:35AM 14.2620 120.6880 74° East 264 304 11,200 -240 Descending FlightAware
05:36AM 14.2720 120.7410 79° East 263 303 11,200  Level FlightAware
05:37AM 14.2820 120.7970 80° East 264 304 11,200 -120 Level FlightAware
05:38AM 14.2920 120.8440 78° East 246 283 11,100 -240 Descending FlightAware
05:38AM 14.3000 120.8890 80° East 241 277 10,900 -720 Descending FlightAware
05:39AM 14.3100 120.9430 79° East 247 284 10,100 -540 Descending FlightAware
05:40AM 14.3180 120.9870 79° East 243 280 10,200 -120 Climbing FlightAware
05:40AM 14.3290 121.0370 77° East 242 278 10,000 -660 Descending FlightAware
05:41AM 14.3460 121.0660 59° Northeast 242 278 9,400 -900 Descending FlightAware
05:41AM 14.3620 121.0940 59° Northeast 241 277 9,200 -480 Descending FlightAware
05:42AM 14.3760 121.1160 57° Northeast 240 276 9,000 -600 Descending FlightAware
05:42AM 14.3870 121.1350 59° Northeast 238 274 8,800 -660 Descending FlightAware
05:42AM 14.4010 121.1590 59° Northeast 221 254 8,500 -720 Descending FlightAware
05:43AM 14.4150 121.1830 59° Northeast 205 236 8,200 -780 Descending FlightAware
05:43AM 14.4290 121.2060 58° Northeast 201 231 7,800 -1,080 Descending FlightAware
05:44AM 14.4430 121.2310 60° Northeast 200 230 7,200 -1,200 Descending FlightAware
05:44AM 14.4560 121.2530 59° Northeast 202 232 6,700 -1,320 Descending FlightAware
05:45AM 14.4640 121.2600 40° Northeast 204 235 6,400 -1,260 Descending FlightAware
05:45AM 14.4760 121.2620 North 203 234 6,200 -1,140 Descending FlightAware
05:45AM 14.4940 121.2620 360° North 199 229 5,800 -1,380 Descending FlightAware
05:45AM 14.5170 121.2600 355° North 199 229 5,200 -1,500 Descending FlightAware
05:46AM 14.5470 121.2580 356° North 200 230 4,400 -1,380 Descending FlightAware
05:46AM 14.5570 121.2530 334° Northwest 197 227 4,200 -1,080 Descending FlightAware
05:47AM 14.5790 121.2390 328° Northwest 198 228 3,700 -660 Descending FlightAware
05:47AM 14.5950 121.2220 314° West 187 215 3,600 -180 Descending FlightAware
05:47AM 14.5960 121.2120 276° West 183 211 3,600 120 Level FlightAware
05:48AM 14.5960 121.1890 270° West 178 205 3,700 -300 Climbing FlightAware
05:48AM 14.5930 121.1740 258° West 179 206 3,400 -900 Descending FlightAware
05:49AM 14.5820 121.1510 244° Southwest 175 201 3,000 -1,020 Descending FlightAware
05:49AM 14.5710 121.1320 239° Southwest 167 192 2,500 -1,080 Descending FlightAware
05:49AM 14.5610 121.1140 240° Southwest 145 167 2,000 -1,080 Descending FlightAware
05:50AM 14.5580 121.1080 243° Southwest 148 170 1,800 -900 Descending FlightAware
05:50AM 14.5470 121.0890 239° Southwest 143 165 1,400 -720 Descending FlightAware
05:51AM 14.5370 121.0710 240° Southwest 145 167 1,100 -720 Descending FlightAware
05:51AM 14.5290 121.0570 239° Southwest 143 165 800 -780 Descending FlightAware
05:51AM 14.5220 121.0430 243° Southwest 147 169 500 -840 Descending FlightAware
05:54AM 14.5086 121.0196 240° Southwest  Level Estimated
05:55AM 14.5086 121.0196 162° South  Level Estimated
05:56AM 14.5086 121.0196 162° South  Level Estimated
05:57AM 14.5086 121.0196 162° South  Level Estimated
05:58AM 14.5086 121.0196 162° South  Level Estimated
05:59AM 14.5086 121.0196 162° South  Level Estimated